sensor_id;sensor_type;location;lat;lon;timestamp;P1;durP1;ratioP1;P2;durP2;ratioP2
51248;SDS011;39642;47.556;18.728;2023-12-22T00:01:47;13.07;;;7.10;;
51248;SDS011;39642;47.556;18.728;2023-12-22T00:04:14;12.80;;;6.62;;
51248;SDS011;39642;47.556;18.728;2023-12-22T00:06:40;12.73;;;6.93;;
51248;SDS011;39642;47.556;18.728;2023-12-22T00:09:07;12.32;;;6.70;;
51248;SDS011;39642;47.556;18.728;2023-12-22T00:11:33;12.63;;;6.60;;
51248;SDS011;39642;47.556;18.728;2023-12-22T00:13:58;13.10;;;7.10;;
51248;SDS011;39642;47.556;18.728;2023-12-22T00:16:24;12.75;;;6.95;;
51248;SDS011;39642;47.556;18.728;2023-12-22T00:18:50;12.10;;;6.32;;
51248;SDS011;39642;47.556;18.728;2023-12-22T00:21:17;13.30;;;7.00;;
51248;SDS011;39642;47.556;18.728;2023-12-22T00:23:43;12.68;;;6.93;;
51248;SDS011;39642;47.556;18.728;2023-12-22T00:26:09;13.13;;;6.97;;
51248;SDS011;39642;47.556;18.728;2023-12-22T00:28:35;12.82;;;6.70;;
51248;SDS011;39642;47.556;18.728;2023-12-22T00:31:01;13.18;;;7.05;;
51248;SDS011;39642;47.556;18.728;2023-12-22T00:33:26;12.35;;;6.62;;
51248;SDS011;39642;47.556;18.728;2023-12-22T00:35:52;13.05;;;6.82;;
51248;SDS011;39642;47.556;18.728;2023-12-22T00:38:18;12.43;;;6.80;;
51248;SDS011;39642;47.556;18.728;2023-12-22T00:40:44;12.70;;;6.75;;
51248;SDS011;39642;47.556;18.728;2023-12-22T00:43:10;11.98;;;6.15;;
51248;SDS011;39642;47.556;18.728;2023-12-22T00:45:36;12.65;;;6.60;;
51248;SDS011;39642;47.556;18.728;2023-12-22T00:48:02;12.13;;;6.40;;
51248;SDS011;39642;47.556;18.728;2023-12-22T00:50:28;12.98;;;6.57;;
51248;SDS011;39642;47.556;18.728;2023-12-22T00:52:54;12.48;;;6.22;;
51248;SDS011;39642;47.556;18.728;2023-12-22T00:55:20;12.50;;;6.47;;
51248;SDS011;39642;47.556;18.728;2023-12-22T00:57:46;12.63;;;6.43;;
51248;SDS011;39642;47.556;18.728;2023-12-22T01:00:12;12.70;;;6.70;;
51248;SDS011;39642;47.556;18.728;2023-12-22T01:02:38;12.05;;;6.10;;
51248;SDS011;39642;47.556;18.728;2023-12-22T01:05:04;12.80;;;6.50;;
51248;SDS011;39642;47.556;18.728;2023-12-22T01:07:30;11.57;;;6.15;;
51248;SDS011;39642;47.556;18.728;2023-12-22T01:09:56;12.23;;;6.22;;
51248;SDS011;39642;47.556;18.728;2023-12-22T01:12:27;12.80;;;6.10;;
51248;SDS011;39642;47.556;18.728;2023-12-22T01:14:54;12.90;;;6.68;;
51248;SDS011;39642;47.556;18.728;2023-12-22T01:17:21;12.35;;;6.00;;
51248;SDS011;39642;47.556;18.728;2023-12-22T01:19:46;11.52;;;5.47;;
51248;SDS011;39642;47.556;18.728;2023-12-22T01:22:12;11.80;;;5.53;;
51248;SDS011;39642;47.556;18.728;2023-12-22T01:24:38;11.95;;;6.03;;
51248;SDS011;39642;47.556;18.728;2023-12-22T01:27:08;11.43;;;5.75;;
51248;SDS011;39642;47.556;18.728;2023-12-22T01:29:35;11.93;;;5.72;;
51248;SDS011;39642;47.556;18.728;2023-12-22T01:32:01;11.55;;;5.72;;
51248;SDS011;39642;47.556;18.728;2023-12-22T01:34:26;11.18;;;5.40;;
51248;SDS011;39642;47.556;18.728;2023-12-22T01:36:52;11.10;;;5.15;;
51248;SDS011;39642;47.556;18.728;2023-12-22T01:39:18;12.00;;;5.70;;
51248;SDS011;39642;47.556;18.728;2023-12-22T01:41:44;10.63;;;5.25;;
51248;SDS011;39642;47.556;18.728;2023-12-22T01:44:10;11.05;;;5.70;;
51248;SDS011;39642;47.556;18.728;2023-12-22T01:46:36;10.82;;;5.32;;
51248;SDS011;39642;47.556;18.728;2023-12-22T01:49:02;11.40;;;5.40;;
51248;SDS011;39642;47.556;18.728;2023-12-22T01:51:28;11.68;;;5.50;;
51248;SDS011;39642;47.556;18.728;2023-12-22T01:53:56;10.90;;;5.00;;
51248;SDS011;39642;47.556;18.728;2023-12-22T01:56:22;10.88;;;5.00;;
51248;SDS011;39642;47.556;18.728;2023-12-22T01:58:50;11.00;;;5.28;;
51248;SDS011;39642;47.556;18.728;2023-12-22T02:01:18;11.48;;;5.40;;
51248;SDS011;39642;47.556;18.728;2023-12-22T02:03:46;10.98;;;5.43;;
51248;SDS011;39642;47.556;18.728;2023-12-22T02:06:18;10.32;;;4.82;;
51248;SDS011;39642;47.556;18.728;2023-12-22T02:08:46;10.23;;;4.70;;
51248;SDS011;39642;47.556;18.728;2023-12-22T02:11:13;10.52;;;4.85;;
51248;SDS011;39642;47.556;18.728;2023-12-22T02:13:40;11.00;;;5.07;;
51248;SDS011;39642;47.556;18.728;2023-12-22T02:16:10;11.10;;;5.10;;
51248;SDS011;39642;47.556;18.728;2023-12-22T02:18:44;10.27;;;4.95;;
51248;SDS011;39642;47.556;18.728;2023-12-22T02:21:14;10.13;;;4.65;;
51248;SDS011;39642;47.556;18.728;2023-12-22T02:23:39;10.52;;;4.85;;
51248;SDS011;39642;47.556;18.728;2023-12-22T02:26:06;10.43;;;4.72;;
51248;SDS011;39642;47.556;18.728;2023-12-22T02:29:04;10.15;;;4.55;;
51248;SDS011;39642;47.556;18.728;2023-12-22T02:31:36;10.15;;;4.30;;
51248;SDS011;39642;47.556;18.728;2023-12-22T02:34:12;10.90;;;4.78;;
51248;SDS011;39642;47.556;18.728;2023-12-22T02:36:41;10.65;;;4.40;;
51248;SDS011;39642;47.556;18.728;2023-12-22T02:39:08;10.20;;;4.60;;
51248;SDS011;39642;47.556;18.728;2023-12-22T02:41:35;11.32;;;5.07;;
51248;SDS011;39642;47.556;18.728;2023-12-22T02:44:01;9.68;;;4.25;;
51248;SDS011;39642;47.556;18.728;2023-12-22T02:46:27;9.77;;;4.40;;
51248;SDS011;39642;47.556;18.728;2023-12-22T02:48:53;10.35;;;4.43;;
51248;SDS011;39642;47.556;18.728;2023-12-22T02:51:19;9.48;;;4.40;;
51248;SDS011;39642;47.556;18.728;2023-12-22T02:53:45;9.98;;;4.30;;
51248;SDS011;39642;47.556;18.728;2023-12-22T02:56:11;9.18;;;4.00;;
51248;SDS011;39642;47.556;18.728;2023-12-22T02:58:36;10.00;;;4.35;;
51248;SDS011;39642;47.556;18.728;2023-12-22T03:01:02;10.43;;;4.43;;
51248;SDS011;39642;47.556;18.728;2023-12-22T03:03:28;9.52;;;4.05;;
51248;SDS011;39642;47.556;18.728;2023-12-22T03:05:54;9.55;;;4.05;;
51248;SDS011;39642;47.556;18.728;2023-12-22T03:08:20;10.32;;;4.18;;
51248;SDS011;39642;47.556;18.728;2023-12-22T03:10:46;9.63;;;4.10;;
51248;SDS011;39642;47.556;18.728;2023-12-22T03:13:12;10.15;;;4.10;;
51248;SDS011;39642;47.556;18.728;2023-12-22T03:15:37;9.00;;;3.78;;
51248;SDS011;39642;47.556;18.728;2023-12-22T03:18:03;9.98;;;4.30;;
51248;SDS011;39642;47.556;18.728;2023-12-22T03:20:29;9.70;;;3.62;;
51248;SDS011;39642;47.556;18.728;2023-12-22T03:22:55;9.18;;;3.80;;
51248;SDS011;39642;47.556;18.728;2023-12-22T03:25:21;9.60;;;4.20;;
51248;SDS011;39642;47.556;18.728;2023-12-22T03:27:47;9.85;;;4.18;;
51248;SDS011;39642;47.556;18.728;2023-12-22T03:30:13;8.27;;;3.37;;
51248;SDS011;39642;47.556;18.728;2023-12-22T03:32:39;9.35;;;3.58;;
51248;SDS011;39642;47.556;18.728;2023-12-22T03:35:04;9.82;;;3.45;;
51248;SDS011;39642;47.556;18.728;2023-12-22T03:37:31;9.45;;;3.70;;
51248;SDS011;39642;47.556;18.728;2023-12-22T03:39:56;8.40;;;3.20;;
51248;SDS011;39642;47.556;18.728;2023-12-22T03:42:22;8.95;;;3.50;;
51248;SDS011;39642;47.556;18.728;2023-12-22T03:44:48;9.18;;;3.50;;
51248;SDS011;39642;47.556;18.728;2023-12-22T03:47:14;9.02;;;3.33;;
51248;SDS011;39642;47.556;18.728;2023-12-22T03:49:40;9.70;;;3.78;;
51248;SDS011;39642;47.556;18.728;2023-12-22T03:52:06;9.52;;;3.50;;
51248;SDS011;39642;47.556;18.728;2023-12-22T03:54:32;8.77;;;3.50;;
51248;SDS011;39642;47.556;18.728;2023-12-22T03:56:58;9.18;;;3.50;;
51248;SDS011;39642;47.556;18.728;2023-12-22T03:59:24;8.65;;;3.42;;
51248;SDS011;39642;47.556;18.728;2023-12-22T04:28:47;9.30;;;3.08;;
51248;SDS011;39642;47.556;18.728;2023-12-22T04:31:13;8.75;;;3.08;;
51248;SDS011;39642;47.556;18.728;2023-12-22T04:33:39;7.93;;;2.85;;
51248;SDS011;39642;47.556;18.728;2023-12-22T04:36:05;8.93;;;2.90;;
51248;SDS011;39642;47.556;18.728;2023-12-22T04:38:31;8.10;;;2.90;;
51248;SDS011;39642;47.556;18.728;2023-12-22T04:40:56;8.27;;;3.00;;
51248;SDS011;39642;47.556;18.728;2023-12-22T04:43:22;8.65;;;2.75;;
51248;SDS011;39642;47.556;18.728;2023-12-22T04:45:48;8.10;;;2.80;;
51248;SDS011;39642;47.556;18.728;2023-12-22T04:48:14;9.95;;;2.80;;
51248;SDS011;39642;47.556;18.728;2023-12-22T04:50:40;8.55;;;3.10;;
51248;SDS011;39642;47.556;18.728;2023-12-22T04:53:06;8.23;;;2.90;;
51248;SDS011;39642;47.556;18.728;2023-12-22T04:55:32;8.60;;;2.90;;
51248;SDS011;39642;47.556;18.728;2023-12-22T04:57:57;7.85;;;2.67;;
51248;SDS011;39642;47.556;18.728;2023-12-22T05:00:23;8.25;;;2.90;;
51248;SDS011;39642;47.556;18.728;2023-12-22T05:02:51;8.57;;;2.97;;
51248;SDS011;39642;47.556;18.728;2023-12-22T05:05:16;8.30;;;2.80;;
51248;SDS011;39642;47.556;18.728;2023-12-22T05:07:42;7.57;;;2.70;;
51248;SDS011;39642;47.556;18.728;2023-12-22T05:10:08;8.00;;;2.78;;
51248;SDS011;39642;47.556;18.728;2023-12-22T05:24:26;8.32;;;2.80;;
51248;SDS011;39642;47.556;18.728;2023-12-22T05:26:52;7.40;;;2.55;;
51248;SDS011;39642;47.556;18.728;2023-12-22T05:29:18;8.80;;;2.65;;
51248;SDS011;39642;47.556;18.728;2023-12-22T05:31:44;8.10;;;2.65;;
51248;SDS011;39642;47.556;18.728;2023-12-22T05:34:10;8.02;;;2.65;;
51248;SDS011;39642;47.556;18.728;2023-12-22T05:36:36;7.45;;;2.53;;
51248;SDS011;39642;47.556;18.728;2023-12-22T05:39:01;9.18;;;2.67;;
51248;SDS011;39642;47.556;18.728;2023-12-22T05:41:27;7.93;;;2.50;;
51248;SDS011;39642;47.556;18.728;2023-12-22T05:55:40;9.35;;;2.65;;
51248;SDS011;39642;47.556;18.728;2023-12-22T05:58:06;8.13;;;2.42;;
51248;SDS011;39642;47.556;18.728;2023-12-22T06:00:32;7.82;;;2.22;;
51248;SDS011;39642;47.556;18.728;2023-12-22T06:02:58;8.00;;;2.28;;
51248;SDS011;39642;47.556;18.728;2023-12-22T06:05:26;7.50;;;2.25;;
51248;SDS011;39642;47.556;18.728;2023-12-22T06:07:51;8.63;;;2.67;;
51248;SDS011;39642;47.556;18.728;2023-12-22T06:10:17;7.68;;;2.17;;
51248;SDS011;39642;47.556;18.728;2023-12-22T06:12:43;8.15;;;2.20;;
51248;SDS011;39642;47.556;18.728;2023-12-22T06:15:09;7.87;;;2.40;;
51248;SDS011;39642;47.556;18.728;2023-12-22T06:17:35;8.40;;;2.42;;
51248;SDS011;39642;47.556;18.728;2023-12-22T06:20:01;8.32;;;2.30;;
51248;SDS011;39642;47.556;18.728;2023-12-22T06:22:27;7.70;;;2.60;;
51248;SDS011;39642;47.556;18.728;2023-12-22T06:24:53;7.57;;;2.37;;
51248;SDS011;39642;47.556;18.728;2023-12-22T06:27:19;7.53;;;2.35;;
51248;SDS011;39642;47.556;18.728;2023-12-22T06:29:45;8.02;;;2.40;;
51248;SDS011;39642;47.556;18.728;2023-12-22T06:32:11;7.47;;;2.20;;
51248;SDS011;39642;47.556;18.728;2023-12-22T06:34:37;8.15;;;2.20;;
51248;SDS011;39642;47.556;18.728;2023-12-22T06:37:03;7.05;;;2.30;;
51248;SDS011;39642;47.556;18.728;2023-12-22T06:39:29;6.20;;;2.00;;
51248;SDS011;39642;47.556;18.728;2023-12-22T06:41:55;8.82;;;2.40;;
51248;SDS011;39642;47.556;18.728;2023-12-22T06:44:21;8.18;;;2.30;;
51248;SDS011;39642;47.556;18.728;2023-12-22T06:46:46;7.62;;;2.35;;
51248;SDS011;39642;47.556;18.728;2023-12-22T06:49:12;7.53;;;2.30;;
51248;SDS011;39642;47.556;18.728;2023-12-22T06:51:38;8.60;;;2.45;;
51248;SDS011;39642;47.556;18.728;2023-12-22T06:54:04;7.12;;;2.15;;
51248;SDS011;39642;47.556;18.728;2023-12-22T06:56:32;9.68;;;2.37;;
51248;SDS011;39642;47.556;18.728;2023-12-22T06:58:59;7.65;;;2.17;;
51248;SDS011;39642;47.556;18.728;2023-12-22T07:03:55;8.38;;;2.20;;
51248;SDS011;39642;47.556;18.728;2023-12-22T07:06:21;7.87;;;2.30;;
51248;SDS011;39642;47.556;18.728;2023-12-22T07:11:40;9.55;;;2.33;;
51248;SDS011;39642;47.556;18.728;2023-12-22T07:14:16;7.60;;;2.28;;
51248;SDS011;39642;47.556;18.728;2023-12-22T07:16:43;7.55;;;1.95;;
51248;SDS011;39642;47.556;18.728;2023-12-22T07:19:08;8.77;;;2.47;;
51248;SDS011;39642;47.556;18.728;2023-12-22T07:21:34;7.35;;;2.20;;
51248;SDS011;39642;47.556;18.728;2023-12-22T07:24:00;8.30;;;2.25;;
51248;SDS011;39642;47.556;18.728;2023-12-22T07:26:26;6.82;;;2.10;;
51248;SDS011;39642;47.556;18.728;2023-12-22T07:28:53;8.55;;;2.35;;
51248;SDS011;39642;47.556;18.728;2023-12-22T07:31:19;8.00;;;2.30;;
51248;SDS011;39642;47.556;18.728;2023-12-22T07:33:46;7.62;;;2.20;;
51248;SDS011;39642;47.556;18.728;2023-12-22T07:36:12;7.00;;;2.00;;
51248;SDS011;39642;47.556;18.728;2023-12-22T07:38:38;8.02;;;2.17;;
51248;SDS011;39642;47.556;18.728;2023-12-22T07:41:07;7.25;;;1.90;;
51248;SDS011;39642;47.556;18.728;2023-12-22T07:43:33;6.65;;;2.10;;
51248;SDS011;39642;47.556;18.728;2023-12-22T07:45:59;6.95;;;2.00;;
51248;SDS011;39642;47.556;18.728;2023-12-22T07:48:25;7.50;;;2.00;;
51248;SDS011;39642;47.556;18.728;2023-12-22T07:50:50;7.28;;;2.20;;
51248;SDS011;39642;47.556;18.728;2023-12-22T07:53:16;7.07;;;2.10;;
51248;SDS011;39642;47.556;18.728;2023-12-22T07:55:43;8.80;;;2.17;;
51248;SDS011;39642;47.556;18.728;2023-12-22T07:58:09;7.25;;;2.03;;
51248;SDS011;39642;47.556;18.728;2023-12-22T08:00:35;5.70;;;1.90;;
51248;SDS011;39642;47.556;18.728;2023-12-22T08:03:02;8.35;;;2.15;;
51248;SDS011;39642;47.556;18.728;2023-12-22T08:05:28;7.78;;;2.00;;
51248;SDS011;39642;47.556;18.728;2023-12-22T08:07:55;8.38;;;2.20;;
51248;SDS011;39642;47.556;18.728;2023-12-22T08:10:21;7.32;;;1.90;;
51248;SDS011;39642;47.556;18.728;2023-12-22T08:12:47;6.85;;;2.00;;
51248;SDS011;39642;47.556;18.728;2023-12-22T08:15:13;6.05;;;1.92;;
51248;SDS011;39642;47.556;18.728;2023-12-22T08:17:45;8.52;;;2.08;;
51248;SDS011;39642;47.556;18.728;2023-12-22T08:20:15;6.12;;;2.00;;
51248;SDS011;39642;47.556;18.728;2023-12-22T08:22:42;5.72;;;1.80;;
51248;SDS011;39642;47.556;18.728;2023-12-22T08:25:09;7.20;;;2.08;;
51248;SDS011;39642;47.556;18.728;2023-12-22T08:27:35;6.90;;;2.00;;
51248;SDS011;39642;47.556;18.728;2023-12-22T08:30:01;8.82;;;2.20;;
51248;SDS011;39642;47.556;18.728;2023-12-22T08:32:26;6.93;;;2.00;;
51248;SDS011;39642;47.556;18.728;2023-12-22T08:34:52;7.80;;;2.00;;
51248;SDS011;39642;47.556;18.728;2023-12-22T08:37:18;8.30;;;1.98;;
51248;SDS011;39642;47.556;18.728;2023-12-22T08:39:44;6.43;;;1.95;;
51248;SDS011;39642;47.556;18.728;2023-12-22T08:42:10;8.15;;;2.10;;
51248;SDS011;39642;47.556;18.728;2023-12-22T08:44:36;7.68;;;2.00;;
51248;SDS011;39642;47.556;18.728;2023-12-22T08:47:02;7.78;;;2.20;;
51248;SDS011;39642;47.556;18.728;2023-12-22T08:49:28;7.80;;;1.90;;
51248;SDS011;39642;47.556;18.728;2023-12-22T08:51:54;7.43;;;2.10;;
51248;SDS011;39642;47.556;18.728;2023-12-22T08:54:20;7.30;;;1.95;;
51248;SDS011;39642;47.556;18.728;2023-12-22T08:56:46;6.87;;;1.92;;
51248;SDS011;39642;47.556;18.728;2023-12-22T08:59:12;7.97;;;2.10;;
51248;SDS011;39642;47.556;18.728;2023-12-22T09:01:38;7.05;;;2.03;;
51248;SDS011;39642;47.556;18.728;2023-12-22T09:04:03;6.97;;;2.10;;
51248;SDS011;39642;47.556;18.728;2023-12-22T09:06:29;6.62;;;2.05;;
51248;SDS011;39642;47.556;18.728;2023-12-22T09:08:55;7.87;;;2.30;;
51248;SDS011;39642;47.556;18.728;2023-12-22T09:11:21;6.15;;;1.87;;
51248;SDS011;39642;47.556;18.728;2023-12-22T09:13:47;7.47;;;1.90;;
51248;SDS011;39642;47.556;18.728;2023-12-22T09:16:13;6.90;;;1.87;;
51248;SDS011;39642;47.556;18.728;2023-12-22T09:18:42;8.32;;;2.33;;
51248;SDS011;39642;47.556;18.728;2023-12-22T09:21:08;6.82;;;1.77;;
51248;SDS011;39642;47.556;18.728;2023-12-22T09:23:34;8.63;;;2.08;;
51248;SDS011;39642;47.556;18.728;2023-12-22T09:25:59;6.72;;;1.90;;
51248;SDS011;39642;47.556;18.728;2023-12-22T09:28:25;6.25;;;1.85;;
51248;SDS011;39642;47.556;18.728;2023-12-22T09:30:51;6.82;;;2.08;;
51248;SDS011;39642;47.556;18.728;2023-12-22T09:33:18;7.07;;;2.00;;
51248;SDS011;39642;47.556;18.728;2023-12-22T09:35:44;6.57;;;1.95;;
51248;SDS011;39642;47.556;18.728;2023-12-22T09:38:10;6.80;;;1.90;;
51248;SDS011;39642;47.556;18.728;2023-12-22T09:40:36;7.18;;;1.83;;
51248;SDS011;39642;47.556;18.728;2023-12-22T09:43:02;7.45;;;2.03;;
51248;SDS011;39642;47.556;18.728;2023-12-22T09:45:30;7.30;;;2.00;;
51248;SDS011;39642;47.556;18.728;2023-12-22T09:47:59;7.20;;;1.87;;
51248;SDS011;39642;47.556;18.728;2023-12-22T09:50:29;6.10;;;1.77;;
51248;SDS011;39642;47.556;18.728;2023-12-22T09:52:56;6.87;;;1.87;;
51248;SDS011;39642;47.556;18.728;2023-12-22T09:55:22;7.43;;;1.92;;
51248;SDS011;39642;47.556;18.728;2023-12-22T09:57:51;7.47;;;2.03;;
51248;SDS011;39642;47.556;18.728;2023-12-22T10:00:18;7.05;;;2.00;;
51248;SDS011;39642;47.556;18.728;2023-12-22T10:02:44;7.72;;;2.00;;
51248;SDS011;39642;47.556;18.728;2023-12-22T10:05:11;6.32;;;1.80;;
51248;SDS011;39642;47.556;18.728;2023-12-22T10:07:41;7.45;;;2.00;;
51248;SDS011;39642;47.556;18.728;2023-12-22T10:10:11;6.70;;;1.80;;
51248;SDS011;39642;47.556;18.728;2023-12-22T10:12:38;7.47;;;1.90;;
51248;SDS011;39642;47.556;18.728;2023-12-22T10:15:05;5.43;;;1.70;;
51248;SDS011;39642;47.556;18.728;2023-12-22T10:17:33;6.65;;;1.80;;
51248;SDS011;39642;47.556;18.728;2023-12-22T10:20:00;5.97;;;1.80;;
51248;SDS011;39642;47.556;18.728;2023-12-22T10:22:25;4.68;;;1.70;;
51248;SDS011;39642;47.556;18.728;2023-12-22T10:24:51;8.23;;;2.08;;
51248;SDS011;39642;47.556;18.728;2023-12-22T10:27:17;6.70;;;1.80;;
51248;SDS011;39642;47.556;18.728;2023-12-22T10:29:48;6.43;;;1.87;;
51248;SDS011;39642;47.556;18.728;2023-12-22T10:32:15;6.18;;;1.70;;
51248;SDS011;39642;47.556;18.728;2023-12-22T10:34:42;7.05;;;1.90;;
51248;SDS011;39642;47.556;18.728;2023-12-22T10:37:08;6.70;;;1.90;;
51248;SDS011;39642;47.556;18.728;2023-12-22T10:39:35;6.45;;;1.70;;
51248;SDS011;39642;47.556;18.728;2023-12-22T10:42:03;5.65;;;1.62;;
51248;SDS011;39642;47.556;18.728;2023-12-22T10:44:29;7.18;;;1.80;;
51248;SDS011;39642;47.556;18.728;2023-12-22T10:46:55;6.93;;;1.80;;
51248;SDS011;39642;47.556;18.728;2023-12-22T10:49:22;4.25;;;1.50;;
51248;SDS011;39642;47.556;18.728;2023-12-22T10:51:50;7.20;;;1.67;;
51248;SDS011;39642;47.556;18.728;2023-12-22T10:54:16;7.60;;;1.80;;
51248;SDS011;39642;47.556;18.728;2023-12-22T10:56:43;5.72;;;1.80;;
51248;SDS011;39642;47.556;18.728;2023-12-22T10:59:09;6.12;;;1.65;;
51248;SDS011;39642;47.556;18.728;2023-12-22T11:01:35;5.90;;;1.70;;
51248;SDS011;39642;47.556;18.728;2023-12-22T11:04:07;7.35;;;1.85;;
51248;SDS011;39642;47.556;18.728;2023-12-22T11:06:37;7.28;;;1.75;;
51248;SDS011;39642;47.556;18.728;2023-12-22T11:09:07;7.18;;;1.73;;
51248;SDS011;39642;47.556;18.728;2023-12-22T11:11:34;5.28;;;1.65;;
51248;SDS011;39642;47.556;18.728;2023-12-22T11:14:05;6.30;;;1.75;;
51248;SDS011;39642;47.556;18.728;2023-12-22T11:16:32;5.97;;;1.70;;
51248;SDS011;39642;47.556;18.728;2023-12-22T11:19:00;7.30;;;1.85;;
51248;SDS011;39642;47.556;18.728;2023-12-22T11:21:27;5.90;;;1.70;;
51248;SDS011;39642;47.556;18.728;2023-12-22T11:23:54;6.43;;;1.60;;
51248;SDS011;39642;47.556;18.728;2023-12-22T11:26:21;6.47;;;1.67;;
51248;SDS011;39642;47.556;18.728;2023-12-22T11:28:49;6.95;;;1.73;;
51248;SDS011;39642;47.556;18.728;2023-12-22T11:31:16;6.43;;;1.77;;
51248;SDS011;39642;47.556;18.728;2023-12-22T11:33:43;6.00;;;1.70;;
51248;SDS011;39642;47.556;18.728;2023-12-22T11:36:12;7.28;;;1.92;;
51248;SDS011;39642;47.556;18.728;2023-12-22T11:38:41;6.80;;;1.80;;
51248;SDS011;39642;47.556;18.728;2023-12-22T11:41:09;6.20;;;1.70;;
51248;SDS011;39642;47.556;18.728;2023-12-22T11:43:38;5.57;;;1.58;;
51248;SDS011;39642;47.556;18.728;2023-12-22T11:46:05;6.45;;;1.70;;
51248;SDS011;39642;47.556;18.728;2023-12-22T11:48:31;5.80;;;1.60;;
51248;SDS011;39642;47.556;18.728;2023-12-22T11:50:58;5.43;;;1.70;;
51248;SDS011;39642;47.556;18.728;2023-12-22T11:53:24;6.57;;;1.80;;
51248;SDS011;39642;47.556;18.728;2023-12-22T11:56:01;5.40;;;1.70;;
51248;SDS011;39642;47.556;18.728;2023-12-22T11:58:39;5.03;;;1.60;;
51248;SDS011;39642;47.556;18.728;2023-12-22T12:01:14;5.78;;;1.70;;
51248;SDS011;39642;47.556;18.728;2023-12-22T12:03:41;7.05;;;1.70;;
51248;SDS011;39642;47.556;18.728;2023-12-22T12:08:39;5.10;;;1.60;;
51248;SDS011;39642;47.556;18.728;2023-12-22T12:11:05;7.10;;;1.80;;
51248;SDS011;39642;47.556;18.728;2023-12-22T12:13:33;5.82;;;1.60;;
51248;SDS011;39642;47.556;18.728;2023-12-22T12:15:59;6.10;;;1.70;;
51248;SDS011;39642;47.556;18.728;2023-12-22T12:18:30;4.28;;;1.52;;
51248;SDS011;39642;47.556;18.728;2023-12-22T12:20:57;6.20;;;1.62;;
51248;SDS011;39642;47.556;18.728;2023-12-22T12:23:23;6.62;;;1.73;;
51248;SDS011;39642;47.556;18.728;2023-12-22T12:25:50;6.15;;;1.73;;
51248;SDS011;39642;47.556;18.728;2023-12-22T12:28:16;5.72;;;1.58;;
51248;SDS011;39642;47.556;18.728;2023-12-22T12:30:45;5.72;;;1.60;;
51248;SDS011;39642;47.556;18.728;2023-12-22T12:33:12;6.82;;;1.65;;
51248;SDS011;39642;47.556;18.728;2023-12-22T12:35:39;5.70;;;1.50;;
51248;SDS011;39642;47.556;18.728;2023-12-22T12:38:06;6.15;;;1.62;;
51248;SDS011;39642;47.556;18.728;2023-12-22T12:40:32;5.50;;;1.70;;
51248;SDS011;39642;47.556;18.728;2023-12-22T12:43:00;4.40;;;1.50;;
51248;SDS011;39642;47.556;18.728;2023-12-22T12:45:28;5.20;;;1.58;;
51248;SDS011;39642;47.556;18.728;2023-12-22T12:47:55;3.87;;;1.50;;
51248;SDS011;39642;47.556;18.728;2023-12-22T12:50:28;5.78;;;1.48;;
51248;SDS011;39642;47.556;18.728;2023-12-22T12:52:57;4.95;;;1.45;;
51248;SDS011;39642;47.556;18.728;2023-12-22T12:55:23;6.18;;;1.60;;
51248;SDS011;39642;47.556;18.728;2023-12-22T12:57:50;5.68;;;1.60;;
51248;SDS011;39642;47.556;18.728;2023-12-22T13:00:23;5.47;;;1.65;;
51248;SDS011;39642;47.556;18.728;2023-12-22T13:02:51;5.80;;;1.67;;
51248;SDS011;39642;47.556;18.728;2023-12-22T13:05:23;5.07;;;1.70;;
51248;SDS011;39642;47.556;18.728;2023-12-22T13:07:49;5.12;;;1.60;;
51248;SDS011;39642;47.556;18.728;2023-12-22T13:10:19;4.35;;;1.52;;
51248;SDS011;39642;47.556;18.728;2023-12-22T13:12:49;4.57;;;1.50;;
51248;SDS011;39642;47.556;18.728;2023-12-22T13:15:16;5.45;;;1.60;;
51248;SDS011;39642;47.556;18.728;2023-12-22T13:17:43;5.25;;;1.50;;
51248;SDS011;39642;47.556;18.728;2023-12-22T13:20:09;4.95;;;1.60;;
51248;SDS011;39642;47.556;18.728;2023-12-22T13:22:35;5.93;;;1.58;;
51248;SDS011;39642;47.556;18.728;2023-12-22T13:25:01;4.57;;;1.50;;
51248;SDS011;39642;47.556;18.728;2023-12-22T13:27:27;4.00;;;1.42;;
51248;SDS011;39642;47.556;18.728;2023-12-22T13:29:53;5.47;;;1.62;;
51248;SDS011;39642;47.556;18.728;2023-12-22T13:32:20;5.20;;;1.50;;
51248;SDS011;39642;47.556;18.728;2023-12-22T13:34:50;5.35;;;1.60;;
51248;SDS011;39642;47.556;18.728;2023-12-22T13:37:16;5.15;;;1.60;;
51248;SDS011;39642;47.556;18.728;2023-12-22T13:39:43;6.35;;;1.83;;
51248;SDS011;39642;47.556;18.728;2023-12-22T13:42:16;6.93;;;2.08;;
51248;SDS011;39642;47.556;18.728;2023-12-22T13:44:43;7.90;;;2.15;;
51248;SDS011;39642;47.556;18.728;2023-12-22T13:47:13;5.70;;;1.73;;
51248;SDS011;39642;47.556;18.728;2023-12-22T13:49:41;4.60;;;1.67;;
51248;SDS011;39642;47.556;18.728;2023-12-22T13:52:07;6.00;;;1.73;;
51248;SDS011;39642;47.556;18.728;2023-12-22T13:54:33;7.68;;;2.00;;
51248;SDS011;39642;47.556;18.728;2023-12-22T13:57:00;7.62;;;2.00;;
51248;SDS011;39642;47.556;18.728;2023-12-22T13:59:32;5.60;;;1.70;;
51248;SDS011;39642;47.556;18.728;2023-12-22T14:01:59;5.82;;;1.80;;
51248;SDS011;39642;47.556;18.728;2023-12-22T14:04:26;7.65;;;1.70;;
51248;SDS011;39642;47.556;18.728;2023-12-22T14:06:52;5.12;;;1.70;;
51248;SDS011;39642;47.556;18.728;2023-12-22T14:09:18;4.03;;;1.50;;
51248;SDS011;39642;47.556;18.728;2023-12-22T14:11:49;7.82;;;2.00;;
51248;SDS011;39642;47.556;18.728;2023-12-22T14:14:15;5.75;;;1.70;;
51248;SDS011;39642;47.556;18.728;2023-12-22T14:16:42;6.18;;;1.70;;
51248;SDS011;39642;47.556;18.728;2023-12-22T14:19:08;4.65;;;1.50;;
51248;SDS011;39642;47.556;18.728;2023-12-22T14:21:34;3.80;;;1.52;;
51248;SDS011;39642;47.556;18.728;2023-12-22T14:23:59;6.15;;;1.67;;
51248;SDS011;39642;47.556;18.728;2023-12-22T14:26:25;5.75;;;1.80;;
51248;SDS011;39642;47.556;18.728;2023-12-22T14:28:51;4.57;;;1.60;;
51248;SDS011;39642;47.556;18.728;2023-12-22T14:31:17;4.55;;;1.60;;
51248;SDS011;39642;47.556;18.728;2023-12-22T14:33:43;5.18;;;1.52;;
51248;SDS011;39642;47.556;18.728;2023-12-22T14:36:09;5.07;;;1.50;;
51248;SDS011;39642;47.556;18.728;2023-12-22T14:38:35;5.57;;;1.60;;
51248;SDS011;39642;47.556;18.728;2023-12-22T14:41:01;4.32;;;1.37;;
51248;SDS011;39642;47.556;18.728;2023-12-22T14:43:26;4.37;;;1.50;;
51248;SDS011;39642;47.556;18.728;2023-12-22T14:45:52;5.55;;;1.55;;
51248;SDS011;39642;47.556;18.728;2023-12-22T14:48:18;5.20;;;1.50;;
51248;SDS011;39642;47.556;18.728;2023-12-22T14:50:44;4.57;;;1.60;;
51248;SDS011;39642;47.556;18.728;2023-12-22T14:53:10;5.18;;;1.60;;
51248;SDS011;39642;47.556;18.728;2023-12-22T14:55:36;6.87;;;1.90;;
51248;SDS011;39642;47.556;18.728;2023-12-22T14:58:02;6.15;;;1.80;;
51248;SDS011;39642;47.556;18.728;2023-12-22T15:00:28;6.43;;;1.70;;
51248;SDS011;39642;47.556;18.728;2023-12-22T15:02:54;6.15;;;1.75;;
51248;SDS011;39642;47.556;18.728;2023-12-22T15:05:20;4.45;;;1.50;;
51248;SDS011;39642;47.556;18.728;2023-12-22T15:07:46;6.07;;;1.75;;
51248;SDS011;39642;47.556;18.728;2023-12-22T15:10:12;5.55;;;1.60;;
51248;SDS011;39642;47.556;18.728;2023-12-22T15:12:38;5.10;;;1.70;;
51248;SDS011;39642;47.556;18.728;2023-12-22T15:15:08;5.47;;;1.60;;
51248;SDS011;39642;47.556;18.728;2023-12-22T15:17:34;6.65;;;1.62;;
51248;SDS011;39642;47.556;18.728;2023-12-22T15:20:00;5.95;;;1.70;;
51248;SDS011;39642;47.556;18.728;2023-12-22T15:22:28;4.85;;;1.58;;
51248;SDS011;39642;47.556;18.728;2023-12-22T15:24:54;5.15;;;1.60;;
51248;SDS011;39642;47.556;18.728;2023-12-22T15:27:19;5.50;;;1.70;;